createdAt,value
2022-08-26T00:00:26.043Z,62.29
2022-08-26T00:01:09.127Z,62.57
2022-08-26T00:01:44.058Z,63.11
2022-08-26T00:02:19.384Z,63.00
2022-08-26T00:02:54.600Z,62.27
2022-08-26T00:03:27.777Z,60.84
2022-08-26T00:04:01.571Z,59.74
2022-08-26T00:04:34.771Z,58.27
2022-08-26T00:05:08.228Z,56.74
2022-08-26T00:05:43.595Z,55.88
2022-08-26T00:06:17.003Z,55.69
2022-08-26T00:06:56.423Z,55.50
2022-08-26T00:07:29.816Z,55.69
2022-08-26T00:08:03.625Z,56.13
2022-08-26T00:08:36.739Z,56.61
2022-08-26T00:09:11.458Z,57.05
2022-08-26T00:09:47.065Z,57.56
2022-08-26T00:10:21.522Z,58.01
2022-08-26T00:10:59.853Z,58.54
2022-08-26T00:11:33.650Z,59.06
2022-08-26T00:12:08.143Z,59.39
2022-08-26T00:12:42.559Z,59.73
2022-08-26T00:13:16.805Z,60.03
2022-08-26T00:13:52.806Z,60.26
2022-08-26T00:14:30.974Z,60.49
2022-08-26T00:15:08.755Z,60.69
2022-08-26T00:15:42.530Z,60.92
2022-08-26T00:16:15.815Z,61.25
2022-08-26T00:16:49.171Z,61.46
2022-08-26T00:17:22.335Z,61.67
2022-08-26T00:17:56.869Z,61.78
2022-08-26T00:18:30.935Z,61.89
2022-08-26T00:19:11.830Z,61.95
2022-08-26T00:19:46.249Z,62.24
2022-08-26T00:20:25.446Z,62.29
2022-08-26T00:21:00.396Z,62.34
2022-08-26T00:21:40.027Z,62.81
2022-08-26T00:22:14.380Z,63.06
2022-08-26T00:22:55.356Z,63.41
2022-08-26T00:23:28.859Z,61.75
2022-08-26T00:24:02.523Z,60.64
2022-08-26T00:24:35.819Z,59.53
2022-08-26T00:25:10.499Z,58.26
2022-08-26T00:25:44.464Z,57.19
2022-08-26T00:26:18.099Z,56.43
2022-08-26T00:26:51.850Z,56.05
2022-08-26T00:27:25.250Z,56.20
2022-08-26T00:27:58.965Z,56.45
2022-08-26T00:28:33.313Z,56.59
2022-08-26T00:29:07.102Z,56.95
2022-08-26T00:29:40.206Z,57.37
2022-08-26T00:30:18.199Z,57.90
2022-08-26T00:30:56.067Z,58.33
2022-08-26T00:31:31.127Z,58.89
2022-08-26T00:32:04.940Z,59.21
2022-08-26T00:32:38.092Z,59.59
2022-08-26T00:33:12.711Z,59.94
2022-08-26T00:33:45.921Z,60.19
2022-08-26T00:34:19.283Z,60.32
2022-08-26T00:34:53.105Z,60.56
2022-08-26T00:35:28.049Z,60.81
2022-08-26T00:36:01.903Z,61.01
2022-08-26T00:36:36.007Z,61.27
2022-08-26T00:37:13.405Z,61.63
2022-08-26T00:37:49.530Z,61.78
2022-08-26T00:38:23.661Z,62.15
2022-08-26T00:38:58.224Z,62.37
2022-08-26T00:39:32.286Z,62.53
2022-08-26T00:40:09.655Z,62.89
2022-08-26T00:40:48.099Z,62.96
2022-08-26T00:41:21.524Z,62.17
2022-08-26T00:41:54.785Z,61.00
2022-08-26T00:42:27.996Z,59.77
2022-08-26T00:43:02.181Z,58.62
2022-08-26T00:43:46.094Z,57.68
2022-08-26T00:44:21.603Z,56.81
2022-08-26T00:44:54.759Z,56.35
2022-08-26T00:45:34.783Z,56.42
2022-08-26T00:46:14.785Z,56.77
2022-08-26T00:46:58.513Z,57.04
2022-08-26T00:47:39.011Z,57.62
2022-08-26T00:48:15.513Z,58.09
2022-08-26T00:48:52.543Z,58.64
2022-08-26T00:49:39.873Z,59.00
2022-08-26T00:50:18.811Z,59.35
2022-08-26T00:51:09.322Z,59.94
2022-08-26T00:51:49.740Z,60.10
2022-08-26T00:52:24.624Z,60.41
2022-08-26T00:53:00.529Z,60.81
2022-08-26T00:53:39.615Z,61.07
2022-08-26T00:54:17.636Z,61.35
2022-08-26T00:55:17.359Z,61.61
2022-08-26T00:56:05.447Z,61.11
2022-08-26T00:56:50.707Z,61.14
2022-08-26T00:57:24.294Z,62.06
2022-08-26T00:57:57.429Z,62.45
2022-08-26T00:58:33.144Z,62.75
2022-08-26T00:59:11.158Z,62.84
2022-08-26T00:59:57.000Z,62.41
2022-08-26T01:00:33.260Z,62.18
2022-08-26T01:01:06.534Z,60.14
2022-08-26T01:01:42.399Z,58.65
2022-08-26T01:02:20.753Z,57.56
2022-08-26T01:02:56.329Z,56.90
2022-08-26T01:03:33.907Z,56.92
2022-08-26T01:04:07.390Z,56.82
2022-08-26T01:04:42.252Z,57.11
2022-08-26T01:05:19.128Z,57.58
2022-08-26T01:05:57.304Z,58.06
2022-08-26T01:06:31.589Z,58.56
2022-08-26T01:07:05.546Z,58.99
2022-08-26T01:07:40.100Z,59.43
2022-08-26T01:08:13.236Z,59.71
2022-08-26T01:08:46.411Z,60.00
2022-08-26T01:09:20.977Z,60.21
2022-08-26T01:09:54.862Z,60.45
2022-08-26T01:10:31.538Z,60.83
2022-08-26T01:11:05.805Z,61.12
2022-08-26T01:11:41.300Z,61.44
2022-08-26T01:12:15.112Z,61.63
2022-08-26T01:12:58.345Z,61.50
2022-08-26T01:13:32.624Z,61.31
2022-08-26T01:14:09.623Z,62.04
2022-08-26T01:14:42.747Z,62.45
2022-08-26T01:15:24.309Z,62.74
2022-08-26T01:16:01.111Z,63.07
2022-08-26T01:16:36.423Z,63.02
2022-08-26T01:17:09.683Z,62.14
2022-08-26T01:17:43.864Z,61.04
2022-08-26T01:18:18.603Z,60.05
2022-08-26T01:18:55.747Z,58.63
2022-08-26T01:19:33.290Z,57.80
2022-08-26T01:20:26.166Z,56.97
2022-08-26T01:21:09.852Z,56.79
2022-08-26T01:21:54.929Z,57.04
2022-08-26T01:22:50.606Z,57.38
2022-08-26T01:23:31.577Z,57.66
2022-08-26T01:24:06.035Z,58.53
2022-08-26T01:24:41.819Z,58.98
2022-08-26T01:25:16.032Z,59.45
2022-08-26T01:25:55.177Z,59.82
2022-08-26T01:26:40.729Z,60.14
2022-08-26T01:27:18.243Z,60.33
2022-08-26T01:27:52.835Z,60.73
2022-08-26T01:28:30.434Z,61.22
2022-08-26T01:29:07.155Z,61.27
2022-08-26T01:29:44.236Z,61.47
2022-08-26T01:30:18.053Z,61.57
2022-08-26T01:30:53.748Z,62.01
2022-08-26T01:31:32.880Z,62.19
2022-08-26T01:32:09.061Z,62.07
2022-08-26T01:32:43.124Z,62.33
2022-08-26T01:33:19.662Z,62.52
2022-08-26T01:34:03.572Z,63.10
2022-08-26T01:34:39.488Z,63.29
2022-08-26T01:35:12.956Z,61.95
2022-08-26T01:35:46.407Z,60.81
2022-08-26T01:36:23.605Z,59.85
2022-08-26T01:37:18.686Z,58.36
2022-08-26T01:37:55.197Z,57.71
2022-08-26T01:38:28.387Z,56.93
2022-08-26T01:39:06.010Z,57.02
2022-08-26T01:39:41.071Z,57.39
2022-08-26T01:40:23.623Z,57.95
2022-08-26T01:40:56.901Z,58.28
2022-08-26T01:41:31.737Z,58.66
2022-08-26T01:42:10.430Z,59.31
2022-08-26T01:42:44.578Z,59.70
2022-08-26T01:43:27.689Z,60.16
2022-08-26T01:44:02.291Z,60.47
2022-08-26T01:44:51.682Z,61.06
2022-08-26T01:45:28.687Z,60.95
2022-08-26T01:46:02.861Z,61.45
2022-08-26T01:46:37.680Z,61.81
2022-08-26T01:47:13.823Z,62.11
2022-08-26T01:47:56.804Z,62.25
2022-08-26T01:48:32.936Z,62.71
2022-08-26T01:49:08.714Z,63.24
2022-08-26T01:49:45.893Z,62.78
2022-08-26T01:50:27.891Z,61.74
2022-08-26T01:51:05.743Z,61.02
2022-08-26T01:51:41.276Z,59.14
2022-08-26T01:52:22.217Z,57.28
2022-08-26T01:53:00.632Z,56.45
2022-08-26T01:53:33.882Z,56.12
2022-08-26T01:54:12.046Z,56.36
2022-08-26T01:54:50.509Z,56.62
2022-08-26T01:55:32.130Z,57.21
2022-08-26T01:56:08.817Z,57.66
2022-08-26T01:56:42.096Z,58.21
2022-08-26T01:57:17.729Z,58.65
2022-08-26T01:57:56.283Z,59.04
2022-08-26T01:58:42.802Z,59.39
2022-08-26T01:59:19.407Z,59.68
2022-08-26T01:59:55.892Z,60.15
2022-08-26T02:00:29.809Z,60.61
2022-08-26T02:01:03.928Z,60.87
2022-08-26T02:01:37.914Z,61.26
2022-08-26T02:02:11.127Z,61.54
2022-08-26T02:02:48.366Z,61.89
2022-08-26T02:03:22.843Z,61.96
2022-08-26T02:04:03.827Z,62.03
2022-08-26T02:04:44.088Z,62.09
2022-08-26T02:05:20.991Z,62.21
2022-08-26T02:05:58.676Z,62.58
2022-08-26T02:06:32.698Z,63.20
2022-08-26T02:07:09.927Z,63.04
2022-08-26T02:07:44.475Z,62.42
2022-08-26T02:08:18.977Z,61.28
2022-08-26T02:09:02.494Z,60.66
2022-08-26T02:09:41.196Z,59.04
2022-08-26T02:10:15.906Z,57.61
2022-08-26T02:10:50.047Z,56.81
2022-08-26T02:11:28.257Z,56.62
2022-08-26T02:12:02.658Z,56.63
2022-08-26T02:13:48.155Z,57.11
2022-08-26T02:14:26.853Z,57.90
2022-08-26T02:15:05.778Z,58.60
2022-08-26T02:15:43.396Z,59.19
2022-08-26T02:16:20.038Z,59.64
2022-08-26T02:16:55.434Z,59.87
2022-08-26T02:17:34.086Z,60.19
2022-08-26T02:18:08.773Z,60.36
2022-08-26T02:18:49.386Z,60.57
2022-08-26T02:19:35.595Z,60.86
2022-08-26T02:20:13.415Z,61.03
2022-08-26T02:20:51.581Z,61.25
2022-08-26T02:21:25.157Z,61.36
2022-08-26T02:22:01.653Z,61.49
2022-08-26T02:22:36.622Z,61.69
2022-08-26T02:23:09.887Z,62.04
2022-08-26T02:23:43.222Z,62.24
2022-08-26T02:24:22.534Z,62.64
2022-08-26T02:25:10.362Z,63.30
2022-08-26T02:25:52.459Z,63.62
2022-08-26T02:26:26.904Z,62.40
2022-08-26T02:27:01.697Z,60.61
2022-08-26T02:27:35.904Z,59.31
2022-08-26T02:28:11.222Z,57.96
2022-08-26T02:28:56.705Z,57.16
2022-08-26T02:29:35.817Z,56.96
2022-08-26T02:30:24.873Z,57.18
2022-08-26T02:30:59.515Z,57.27
2022-08-26T02:31:35.166Z,57.78
2022-08-26T02:32:09.085Z,58.13
2022-08-26T02:32:42.668Z,58.53
2022-08-26T02:33:15.854Z,58.97
2022-08-26T02:33:49.367Z,59.34
2022-08-26T02:34:28.219Z,59.57
2022-08-26T02:35:05.530Z,59.74
2022-08-26T02:35:39.849Z,60.08
2022-08-26T02:36:13.517Z,60.35
2022-08-26T02:36:49.801Z,60.74
2022-08-26T02:37:28.513Z,61.21
2022-08-26T02:38:02.709Z,61.56
2022-08-26T02:38:43.554Z,61.44
2022-08-26T02:39:22.300Z,61.77
2022-08-26T02:39:55.817Z,62.05
2022-08-26T02:40:34.146Z,62.32
2022-08-26T02:41:08.923Z,62.49
2022-08-26T02:41:45.493Z,63.02
2022-08-26T02:42:18.667Z,63.01
2022-08-26T02:42:53.058Z,62.16
2022-08-26T02:43:31.413Z,61.63
2022-08-26T02:44:07.422Z,60.49
2022-08-26T02:44:40.654Z,58.97
2022-08-26T02:45:13.844Z,57.60
2022-08-26T02:45:49.963Z,56.86
2022-08-26T02:46:28.054Z,56.69
2022-08-26T02:47:04.441Z,56.77
2022-08-26T02:47:38.605Z,57.06
2022-08-26T02:48:17.271Z,57.50
2022-08-26T02:48:52.224Z,57.82
2022-08-26T02:49:27.956Z,58.37
2022-08-26T02:50:01.217Z,58.80
2022-08-26T02:50:35.218Z,59.20
2022-08-26T02:51:08.421Z,59.59
2022-08-26T02:51:41.449Z,59.97
2022-08-26T02:52:16.433Z,60.31
2022-08-26T02:52:49.609Z,60.62
2022-08-26T02:53:25.438Z,60.93
2022-08-26T02:53:58.788Z,60.95
2022-08-26T02:54:32.554Z,61.12
2022-08-26T02:55:07.954Z,61.21
2022-08-26T02:55:42.012Z,61.46
2022-08-26T02:56:15.250Z,61.67
2022-08-26T02:56:49.188Z,62.01
2022-08-26T02:57:22.340Z,62.26
2022-08-26T02:57:56.037Z,62.55
2022-08-26T02:58:29.117Z,63.08
2022-08-26T02:59:02.069Z,62.92
2022-08-26T02:59:36.271Z,62.48
2022-08-26T03:00:12.868Z,61.80
2022-08-26T03:00:53.093Z,61.01
2022-08-26T03:01:30.876Z,60.16
2022-08-26T03:02:04.324Z,58.26
2022-08-26T03:02:37.737Z,56.69
2022-08-26T03:03:10.901Z,56.05
2022-08-26T03:03:43.909Z,56.08
2022-08-26T03:04:17.357Z,56.17
2022-08-26T03:04:57.974Z,56.53
2022-08-26T03:05:35.597Z,56.94
2022-08-26T03:06:10.698Z,57.39
2022-08-26T03:06:44.317Z,57.71
2022-08-26T03:07:26.541Z,57.82
2022-08-26T03:08:01.050Z,58.56
2022-08-26T03:08:35.110Z,58.86
2022-08-26T03:09:08.650Z,59.44
2022-08-26T03:09:42.040Z,59.84
2022-08-26T03:10:16.611Z,59.98
2022-08-26T03:10:50.007Z,60.12
2022-08-26T03:11:23.983Z,60.60
2022-08-26T03:11:59.104Z,60.93
2022-08-26T03:12:32.734Z,61.21
2022-08-26T03:13:06.037Z,61.47
2022-08-26T03:13:40.397Z,61.77
2022-08-26T03:14:13.622Z,62.07
2022-08-26T03:14:48.572Z,62.31
2022-08-26T03:15:21.840Z,62.50
2022-08-26T03:15:55.436Z,62.87
2022-08-26T03:16:33.272Z,62.86
2022-08-26T03:17:06.439Z,62.33
2022-08-26T03:17:44.070Z,61.41
2022-08-26T03:18:17.158Z,60.23
2022-08-26T03:18:52.355Z,58.89
2022-08-26T03:19:26.284Z,57.68
2022-08-26T03:19:59.897Z,56.97
2022-08-26T03:20:34.619Z,56.59
2022-08-26T03:21:15.771Z,56.78
2022-08-26T03:21:57.821Z,57.07
2022-08-26T03:22:31.887Z,57.42
2022-08-26T03:23:05.044Z,57.83
2022-08-26T03:23:40.175Z,58.25
2022-08-26T03:24:13.676Z,58.70
2022-08-26T03:24:46.787Z,59.18
2022-08-26T03:25:21.104Z,59.63
2022-08-26T03:25:55.085Z,59.96
2022-08-26T03:26:30.070Z,60.29
2022-08-26T03:27:05.891Z,60.66
2022-08-26T03:27:41.165Z,60.95
2022-08-26T03:28:16.287Z,61.44
2022-08-26T03:29:10.993Z,61.59
2022-08-26T03:30:02.858Z,61.59
2022-08-26T03:30:45.083Z,61.92
2022-08-26T03:31:18.689Z,62.41
2022-08-26T03:31:57.538Z,63.33
2022-08-26T03:32:31.606Z,62.86
2022-08-26T03:33:05.416Z,61.81
2022-08-26T03:33:39.087Z,60.85
2022-08-26T03:34:12.133Z,59.50
2022-08-26T03:34:45.178Z,58.13
2022-08-26T03:35:20.202Z,57.21
2022-08-26T03:35:55.912Z,56.83
2022-08-26T03:36:30.466Z,56.74
2022-08-26T03:37:03.641Z,56.85
2022-08-26T03:37:38.258Z,57.23
2022-08-26T03:38:11.938Z,57.62
2022-08-26T03:38:45.061Z,58.19
2022-08-26T03:39:18.934Z,58.74
2022-08-26T03:39:52.083Z,59.21
2022-08-26T03:40:25.569Z,59.58
2022-08-26T03:41:02.441Z,59.92
2022-08-26T03:41:37.007Z,60.40
2022-08-26T03:42:11.499Z,60.77
2022-08-26T03:42:45.487Z,61.26
2022-08-26T03:43:19.060Z,61.59
2022-08-26T03:43:52.127Z,61.96
2022-08-26T03:44:25.282Z,62.19
2022-08-26T03:44:58.331Z,62.53
2022-08-26T03:45:31.779Z,63.05
2022-08-26T03:46:10.625Z,63.06
2022-08-26T03:46:44.066Z,62.68
2022-08-26T03:47:18.442Z,61.85
2022-08-26T03:47:51.980Z,60.85
2022-08-26T03:48:26.853Z,59.78
2022-08-26T03:49:01.738Z,58.69
2022-08-26T03:49:36.200Z,57.54
2022-08-26T03:50:12.112Z,57.03
2022-08-26T03:50:45.895Z,56.76
2022-08-26T03:51:21.912Z,56.84
2022-08-26T03:51:57.435Z,57.03
2022-08-26T03:52:31.546Z,57.37
2022-08-26T03:53:04.801Z,57.92
2022-08-26T03:53:41.463Z,58.41
2022-08-26T03:54:14.593Z,59.03
2022-08-26T03:54:47.815Z,59.52
2022-08-26T03:55:24.576Z,59.96
2022-08-26T03:55:57.903Z,60.36
2022-08-26T03:56:33.804Z,60.87
2022-08-26T03:57:09.304Z,61.24
2022-08-26T03:57:43.087Z,61.64
2022-08-26T03:58:17.396Z,62.01
2022-08-26T03:58:50.654Z,62.32
2022-08-26T03:59:24.041Z,62.69
2022-08-26T03:59:57.955Z,63.11
2022-08-26T04:00:32.795Z,63.10
2022-08-26T04:01:07.985Z,62.58
2022-08-26T04:01:42.006Z,61.53
2022-08-26T04:02:15.697Z,60.27
2022-08-26T04:02:53.187Z,59.21
2022-08-26T04:03:46.775Z,58.10
2022-08-26T04:04:22.876Z,57.44
2022-08-26T04:04:57.696Z,56.98
2022-08-26T04:05:30.727Z,57.20
2022-08-26T04:06:04.390Z,57.64
2022-08-26T04:06:44.550Z,57.81
2022-08-26T04:07:18.468Z,58.14
2022-08-26T04:07:52.219Z,58.88
2022-08-26T04:08:25.454Z,59.35
2022-08-26T04:09:08.374Z,59.56
2022-08-26T04:09:41.516Z,60.05
2022-08-26T04:10:20.378Z,60.59
2022-08-26T04:10:53.817Z,60.78
2022-08-26T04:11:34.302Z,61.14
2022-08-26T04:12:09.995Z,61.38
2022-08-26T04:12:43.749Z,61.77
2022-08-26T04:13:16.822Z,62.20
2022-08-26T04:13:50.123Z,62.61
2022-08-26T04:14:25.455Z,63.10
2022-08-26T04:14:58.643Z,63.28
2022-08-26T04:15:32.767Z,62.87
2022-08-26T04:16:07.281Z,61.96
2022-08-26T04:16:42.441Z,60.59
2022-08-26T04:17:16.395Z,59.65
2022-08-26T04:17:49.997Z,58.15
2022-08-26T04:18:23.392Z,56.96
2022-08-26T04:18:57.865Z,56.53
2022-08-26T04:19:32.902Z,56.34
2022-08-26T04:20:07.450Z,56.33
2022-08-26T04:20:40.685Z,56.68
2022-08-26T04:21:15.360Z,57.08
2022-08-26T04:21:53.199Z,57.72
2022-08-26T04:22:26.753Z,58.26
2022-08-26T04:23:02.615Z,58.83
2022-08-26T04:23:46.926Z,59.30
2022-08-26T04:24:23.493Z,59.65
2022-08-26T04:24:57.134Z,60.32
2022-08-26T04:25:30.389Z,60.74
2022-08-26T04:26:04.040Z,61.09
2022-08-26T04:26:42.724Z,61.33
2022-08-26T04:27:16.813Z,61.56
2022-08-26T04:27:50.180Z,61.85
2022-08-26T04:28:23.843Z,62.38
2022-08-26T04:28:57.746Z,62.75
2022-08-26T04:29:33.099Z,63.15
2022-08-26T04:30:07.903Z,62.73
2022-08-26T04:30:42.697Z,62.61
2022-08-26T04:31:18.905Z,61.62
2022-08-26T04:31:55.461Z,60.82
2022-08-26T04:32:28.998Z,59.82
2022-08-26T04:33:12.982Z,58.28
2022-08-26T04:33:50.203Z,57.32
2022-08-26T04:34:25.153Z,56.52
2022-08-26T04:35:02.262Z,56.38
2022-08-26T04:35:37.793Z,56.61
2022-08-26T04:36:11.554Z,57.00
2022-08-26T04:36:45.318Z,57.45
2022-08-26T04:37:18.546Z,58.08
2022-08-26T04:37:52.019Z,58.60
2022-08-26T04:38:25.334Z,59.23
2022-08-26T04:39:02.656Z,59.59
2022-08-26T04:39:35.949Z,59.88
2022-08-26T04:40:10.355Z,60.38
2022-08-26T04:40:46.824Z,60.77
2022-08-26T04:41:21.215Z,61.15
2022-08-26T04:41:55.467Z,61.57
2022-08-26T04:42:29.742Z,61.96
2022-08-26T04:43:03.185Z,62.23
2022-08-26T04:43:37.809Z,62.51
2022-08-26T04:44:11.788Z,62.86
2022-08-26T04:44:46.392Z,62.77
2022-08-26T04:45:22.832Z,62.59
2022-08-26T04:46:02.377Z,62.05
2022-08-26T04:46:36.771Z,61.42
2022-08-26T04:47:16.966Z,60.37
2022-08-26T04:47:55.023Z,58.93
2022-08-26T04:48:33.086Z,57.71
2022-08-26T04:49:08.769Z,57.13
2022-08-26T04:49:42.415Z,57.09
2022-08-26T04:50:15.626Z,57.30
2022-08-26T04:50:51.887Z,57.65
2022-08-26T04:51:28.323Z,58.18
2022-08-26T04:52:01.653Z,58.61
2022-08-26T04:52:36.956Z,59.31
2022-08-26T04:53:10.956Z,59.80
2022-08-26T04:53:45.463Z,60.37
2022-08-26T04:54:18.875Z,60.61
2022-08-26T04:54:52.640Z,61.11
2022-08-26T04:55:39.735Z,61.41
2022-08-26T04:56:16.904Z,61.60
2022-08-26T04:56:50.958Z,62.26
2022-08-26T04:57:24.105Z,62.89
2022-08-26T04:57:57.794Z,63.39
2022-08-26T04:58:31.408Z,63.45
2022-08-26T04:59:17.042Z,63.08
2022-08-26T04:59:51.376Z,62.98
2022-08-26T05:00:24.590Z,60.50
2022-08-26T05:00:59.583Z,59.04
2022-08-26T05:01:32.937Z,57.86
2022-08-26T05:02:12.788Z,57.18
2022-08-26T05:02:46.411Z,56.95
2022-08-26T05:03:20.221Z,57.03
2022-08-26T05:03:53.448Z,57.38
2022-08-26T05:04:27.406Z,57.76
2022-08-26T05:05:00.633Z,58.19
2022-08-26T05:05:33.811Z,58.79
2022-08-26T05:06:08.435Z,59.48
2022-08-26T05:06:42.756Z,59.95
2022-08-26T05:07:17.601Z,60.44
2022-08-26T05:07:50.949Z,60.65
2022-08-26T05:08:24.495Z,61.25
2022-08-26T05:08:58.113Z,61.66
2022-08-26T05:09:31.674Z,62.00
2022-08-26T05:10:08.665Z,62.10
2022-08-26T05:10:44.906Z,62.06
2022-08-26T05:11:18.345Z,62.27
2022-08-26T05:11:52.405Z,62.77
2022-08-26T05:12:25.743Z,63.06
2022-08-26T05:13:00.556Z,62.90
2022-08-26T05:13:35.609Z,62.13
2022-08-26T05:14:08.817Z,61.24
2022-08-26T05:14:41.931Z,60.07
2022-08-26T05:15:16.982Z,58.82
2022-08-26T05:15:51.528Z,57.90
2022-08-26T05:16:25.646Z,57.47
2022-08-26T05:16:59.082Z,57.39
2022-08-26T05:17:33.639Z,57.33
2022-08-26T05:18:08.114Z,57.66
2022-08-26T05:18:43.951Z,57.95
2022-08-26T05:19:19.394Z,58.38
2022-08-26T05:19:53.515Z,59.15
2022-08-26T05:20:26.658Z,59.47
2022-08-26T05:21:01.431Z,59.80
2022-08-26T05:21:34.646Z,60.04
2022-08-26T05:22:07.833Z,60.36
2022-08-26T05:22:40.935Z,60.73
2022-08-26T05:23:15.475Z,61.01
2022-08-26T05:23:51.571Z,61.40
2022-08-26T05:24:24.722Z,61.67
2022-08-26T05:24:57.791Z,62.14
2022-08-26T05:25:30.963Z,62.41
2022-08-26T05:26:08.560Z,62.58
2022-08-26T05:26:44.588Z,62.91
2022-08-26T05:27:18.005Z,62.73
2022-08-26T05:27:52.410Z,62.12
2022-08-26T05:28:27.159Z,61.52
2022-08-26T05:29:00.993Z,60.57
2022-08-26T05:29:34.647Z,59.58
2022-08-26T05:30:09.779Z,58.47
2022-08-26T05:30:43.228Z,57.50
2022-08-26T05:31:27.299Z,56.96
2022-08-26T05:32:01.821Z,56.91
2022-08-26T05:32:35.665Z,57.25
2022-08-26T05:33:09.771Z,57.69
2022-08-26T05:33:44.166Z,58.08
2022-08-26T05:34:17.542Z,58.67
2022-08-26T05:34:55.715Z,59.46
2022-08-26T05:35:34.433Z,60.01
2022-08-26T05:36:10.591Z,60.43
2022-08-26T05:36:44.615Z,61.12
2022-08-26T05:37:17.716Z,61.54
2022-08-26T05:37:50.840Z,61.75
2022-08-26T05:38:25.655Z,62.12
2022-08-26T05:39:06.191Z,63.12
2022-08-26T05:39:39.207Z,64.00
2022-08-26T05:40:16.874Z,64.08
2022-08-26T05:40:53.221Z,63.51
2022-08-26T05:41:34.391Z,62.48
2022-08-26T05:42:09.562Z,61.74
2022-08-26T05:42:43.060Z,60.35
2022-08-26T05:43:17.545Z,59.46
2022-08-26T05:43:53.864Z,58.34
2022-08-26T05:44:27.025Z,57.51
2022-08-26T05:45:00.263Z,57.47
2022-08-26T05:45:33.986Z,57.68
2022-08-26T05:46:07.951Z,58.15
2022-08-26T05:46:42.466Z,58.62
2022-08-26T05:47:17.499Z,58.85
2022-08-26T05:47:52.783Z,59.29
2022-08-26T05:48:25.940Z,59.83
2022-08-26T05:48:59.878Z,60.31
2022-08-26T05:49:33.335Z,60.59
2022-08-26T05:50:07.300Z,60.61
2022-08-26T05:50:46.378Z,60.89
2022-08-26T05:51:22.824Z,60.98
2022-08-26T05:51:58.868Z,61.49
2022-08-26T05:52:33.697Z,62.05
2022-08-26T05:53:09.586Z,62.48
2022-08-26T05:53:43.912Z,62.78
2022-08-26T05:54:28.224Z,62.74
2022-08-26T05:55:01.740Z,61.40
2022-08-26T05:55:35.396Z,60.42
2022-08-26T05:56:11.178Z,58.71
2022-08-26T05:56:44.421Z,57.41
2022-08-26T05:57:19.448Z,56.62
2022-08-26T05:57:56.370Z,56.52
2022-08-26T05:58:30.666Z,56.58
2022-08-26T05:59:04.473Z,57.10
2022-08-26T05:59:39.553Z,57.41
2022-08-26T06:00:15.687Z,57.89
2022-08-26T06:00:59.577Z,58.31
2022-08-26T06:01:35.710Z,58.58
2022-08-26T06:02:09.208Z,59.10
2022-08-26T06:02:42.496Z,59.33
2022-08-26T06:03:15.896Z,59.40
2022-08-26T06:03:52.022Z,59.39
2022-08-26T06:04:26.787Z,59.48
2022-08-26T06:05:02.456Z,59.79
2022-08-26T06:05:40.924Z,60.07
2022-08-26T06:06:20.031Z,59.86
2022-08-26T06:06:54.005Z,59.78
2022-08-26T06:07:47.298Z,59.92
2022-08-26T06:08:21.497Z,59.84
2022-08-26T06:08:54.817Z,60.29
2022-08-26T06:09:28.008Z,60.38
2022-08-26T06:10:28.127Z,60.35
2022-08-26T06:11:00.159Z,60.42
2022-08-26T06:11:34.121Z,60.68
2022-08-26T06:12:07.794Z,60.89
2022-08-26T06:12:41.658Z,60.39
2022-08-26T06:13:19.389Z,60.34
2022-08-26T06:13:55.419Z,60.30
2022-08-26T06:14:30.909Z,60.03
2022-08-26T06:15:08.143Z,60.01
2022-08-26T06:15:47.132Z,60.25
2022-08-26T06:16:23.660Z,60.31
2022-08-26T06:16:57.484Z,60.26
2022-08-26T06:17:31.689Z,60.25
2022-08-26T06:18:06.601Z,60.20
2022-08-26T06:18:42.529Z,60.29
2022-08-26T06:19:15.988Z,60.32
2022-08-26T06:19:49.171Z,60.40
2022-08-26T06:20:22.598Z,60.46
2022-08-26T06:20:57.843Z,60.91
2022-08-26T06:21:35.257Z,60.94
2022-08-26T06:22:28.393Z,61.12
2022-08-26T06:23:20.325Z,61.07
2022-08-26T06:24:15.536Z,60.75
2022-08-26T06:25:07.479Z,60.91
2022-08-26T06:25:43.846Z,61.16
2022-08-26T06:26:17.227Z,62.01
2022-08-26T06:26:54.479Z,62.60
2022-08-26T06:27:32.845Z,62.97
2022-08-26T06:28:08.021Z,62.66
2022-08-26T06:28:43.571Z,61.77
2022-08-26T06:29:24.587Z,60.87
2022-08-26T06:29:58.079Z,60.01
2022-08-26T06:30:32.768Z,58.31
2022-08-26T06:31:06.368Z,57.02
2022-08-26T06:31:39.998Z,56.37
2022-08-26T06:32:13.493Z,55.97
2022-08-26T06:32:46.781Z,55.88
2022-08-26T06:33:21.649Z,55.89
2022-08-26T06:33:55.388Z,55.98
2022-08-26T06:34:29.787Z,56.15
2022-08-26T06:35:03.934Z,56.62
2022-08-26T06:35:42.026Z,56.95
2022-08-26T06:36:20.745Z,57.43
2022-08-26T06:36:55.617Z,57.76
2022-08-26T06:37:28.844Z,58.28
2022-08-26T06:38:02.663Z,58.81
2022-08-26T06:38:37.562Z,58.96
2022-08-26T06:39:13.380Z,59.17
2022-08-26T06:39:47.256Z,59.65
2022-08-26T06:40:24.966Z,59.79
2022-08-26T06:40:59.777Z,59.87
2022-08-26T06:41:35.047Z,59.88
2022-08-26T06:42:11.902Z,59.44
2022-08-26T06:42:45.389Z,59.19
2022-08-26T06:43:22.292Z,59.25
2022-08-26T06:43:57.155Z,59.32
2022-08-26T06:44:30.598Z,59.36
2022-08-26T06:45:06.320Z,58.98
2022-08-26T06:45:40.606Z,58.80
2022-08-26T06:46:17.453Z,58.18
2022-08-26T06:46:51.386Z,58.16
2022-08-26T06:47:24.959Z,58.02
2022-08-26T06:47:58.845Z,57.87
2022-08-26T06:48:32.341Z,58.20
2022-08-26T06:49:05.877Z,58.46
2022-08-26T06:49:39.771Z,58.42
2022-08-26T06:50:13.023Z,57.96
2022-08-26T06:50:47.497Z,58.02
2022-08-26T06:51:26.798Z,57.84
2022-08-26T06:52:00.256Z,58.07
2022-08-26T06:52:33.414Z,58.10
2022-08-26T06:53:09.232Z,57.93
2022-08-26T06:53:45.886Z,57.78
2022-08-26T06:54:19.025Z,57.40
2022-08-26T06:54:52.050Z,57.38
2022-08-26T06:55:27.053Z,57.51
2022-08-26T06:56:05.109Z,57.69
2022-08-26T06:56:42.195Z,57.42
2022-08-26T06:57:16.712Z,56.98
2022-08-26T06:57:50.876Z,56.63
2022-08-26T06:58:27.343Z,56.37
2022-08-26T06:59:00.687Z,56.09
2022-08-26T06:59:33.943Z,55.71
2022-08-26T07:00:10.783Z,55.27
2022-08-26T07:00:47.390Z,55.22
2022-08-26T07:01:28.641Z,55.32
2022-08-26T07:02:02.612Z,54.83
2022-08-26T07:02:35.893Z,54.90
2022-08-26T07:03:09.908Z,55.09
2022-08-26T07:03:43.453Z,55.14
2022-08-26T07:04:22.473Z,55.25
2022-08-26T07:04:56.823Z,55.52
2022-08-26T07:05:30.421Z,55.77
2022-08-26T07:06:04.534Z,55.93
2022-08-26T07:06:41.615Z,56.10
2022-08-26T07:07:16.644Z,55.92
2022-08-26T07:07:50.249Z,56.18
2022-08-26T07:08:23.417Z,56.11
2022-08-26T07:09:05.003Z,56.05
2022-08-26T07:09:39.126Z,55.89
2022-08-26T07:10:13.384Z,55.76
2022-08-26T07:10:46.526Z,55.52
2022-08-26T07:11:20.393Z,55.29
2022-08-26T07:11:56.407Z,55.33
2022-08-26T07:12:29.596Z,55.34
2022-08-26T07:13:02.671Z,55.40
2022-08-26T07:13:37.860Z,55.71
2022-08-26T07:14:11.831Z,56.19
2022-08-26T07:14:47.554Z,56.32
2022-08-26T07:15:27.206Z,56.03
2022-08-26T07:16:14.280Z,55.75
2022-08-26T07:16:48.040Z,55.17
2022-08-26T07:17:21.402Z,55.13
2022-08-26T07:17:58.211Z,55.34
2022-08-26T07:18:32.497Z,55.74
2022-08-26T07:19:11.169Z,55.70
2022-08-26T07:19:45.051Z,55.69
2022-08-26T07:20:18.898Z,55.85
2022-08-26T07:20:52.487Z,56.00
2022-08-26T07:21:26.850Z,56.15
2022-08-26T07:22:03.254Z,56.33
2022-08-26T07:22:37.506Z,56.25
2022-08-26T07:23:11.821Z,55.62
2022-08-26T07:23:45.638Z,55.35
2022-08-26T07:24:20.278Z,55.15
2022-08-26T07:24:54.183Z,55.12
2022-08-26T07:25:27.291Z,55.29
2022-08-26T07:26:04.520Z,55.29
2022-08-26T07:26:38.327Z,54.98
2022-08-26T07:27:16.244Z,54.94
2022-08-26T07:27:54.273Z,55.21
2022-08-26T07:28:28.077Z,55.36
2022-08-26T07:29:02.079Z,55.31
2022-08-26T07:29:36.365Z,54.51
2022-08-26T07:30:10.861Z,53.99
2022-08-26T07:30:48.117Z,53.91
2022-08-26T07:31:26.495Z,53.72
2022-08-26T07:32:00.269Z,53.60
2022-08-26T07:32:34.070Z,53.87
2022-08-26T07:33:07.928Z,53.98
2022-08-26T07:33:42.794Z,53.78
2022-08-26T07:34:17.436Z,53.38
2022-08-26T07:34:51.625Z,53.30
2022-08-26T07:35:24.970Z,52.78
2022-08-26T07:35:58.150Z,52.58
2022-08-26T07:36:33.520Z,52.64
2022-08-26T07:37:08.814Z,52.65
2022-08-26T07:37:42.384Z,52.42
2022-08-26T07:38:15.674Z,52.18
2022-08-26T07:38:49.174Z,52.09
2022-08-26T07:39:24.718Z,52.32
2022-08-26T07:39:58.399Z,52.47
2022-08-26T07:40:32.509Z,52.53
2022-08-26T07:41:08.933Z,52.19
2022-08-26T07:41:42.194Z,51.64
2022-08-26T07:42:18.484Z,51.47
2022-08-26T07:42:51.847Z,51.52
2022-08-26T07:43:25.724Z,51.60